Astor Piazzola International Airport


Codes: SAZM/MDQ
Name: Astor Piazzola International Airport
City: Mar del Plata
Country: Argentina
Elevation: 72 ft.
Wikipedia:

Photos at Astor Piazzola International Airport


   Photos courtesy of SpottingLog. You can add your own sightings and photos by signing up for a free trial today.



No photos found.

Weather at Astor Piazzola International Airport


Time (UTC)DescriptionTempratureWindCloud coverageVisibilityPressureHumidity
19-Apr-2024 06:00Few Clouds12°C13 mph, NW15%10000m1011hPa81%
19-Apr-2024 09:00Scattered Clouds12°C13 mph, NW27%10000m1010hPa89%
19-Apr-2024 12:00Scattered Clouds16°C16 mph, NW42%10000m1010hPa86%
19-Apr-2024 15:00Overcast Clouds21°C20 mph, NW88%10000m1010hPa66%
19-Apr-2024 18:00Broken Clouds23°C16 mph, NW59%10000m1009hPa61%
19-Apr-2024 21:00Overcast Clouds20°C11 mph, NW100%10000m1010hPa75%
20-Apr-2024 00:00Overcast Clouds17°C13 mph, NW100%10000m1011hPa82%
20-Apr-2024 03:00Overcast Clouds16°C4 mph, W100%10000m1013hPa91%
20-Apr-2024 06:00Overcast Clouds16°C2 mph, SW100%10000m1014hPa81%
20-Apr-2024 09:00Overcast Clouds16°C2 mph, N100%10000m1014hPa76%
20-Apr-2024 12:00Overcast Clouds17°C2 mph, N100%10000m1015hPa81%
20-Apr-2024 15:00Overcast Clouds20°C2 mph, NW100%10000m1015hPa55%
20-Apr-2024 18:00Overcast Clouds21°C0 mph, S100%10000m1013hPa47%
20-Apr-2024 21:00Overcast Clouds16°C7 mph, SE100%10000m1014hPa68%
21-Apr-2024 00:00Overcast Clouds16°C7 mph, SE90%10000m1014hPa71%
21-Apr-2024 03:00Overcast Clouds16°C4 mph, SE100%10000m1014hPa73%
21-Apr-2024 06:00Overcast Clouds16°C4 mph, SE100%10000m1014hPa72%
21-Apr-2024 09:00Overcast Clouds16°C9 mph, SE100%10000m1013hPa73%
21-Apr-2024 12:00Overcast Clouds16°C11 mph, SE100%10000m1015hPa69%
21-Apr-2024 15:00Overcast Clouds16°C9 mph, SE100%10000m1016hPa61%
21-Apr-2024 18:00Overcast Clouds16°C13 mph, SE100%10000m1016hPa56%
21-Apr-2024 21:00Overcast Clouds14°C13 mph, SE100%10000m1017hPa58%
22-Apr-2024 00:00Overcast Clouds13°C13 mph, SE100%10000m1018hPa68%
22-Apr-2024 03:00Overcast Clouds12°C13 mph, SE100%10000m1019hPa68%
22-Apr-2024 06:00Overcast Clouds12°C11 mph, SE100%10000m1019hPa68%
22-Apr-2024 09:00Overcast Clouds12°C13 mph, SE100%10000m1017hPa66%
22-Apr-2024 12:00Overcast Clouds12°C13 mph, SE100%10000m1018hPa66%
22-Apr-2024 15:00Overcast Clouds12°C11 mph, SE100%10000m1018hPa64%
22-Apr-2024 18:00Overcast Clouds13°C9 mph, SE100%10000m1017hPa62%
22-Apr-2024 21:00Overcast Clouds12°C9 mph, SE100%10000m1017hPa64%
23-Apr-2024 00:00Overcast Clouds10°C4 mph, SE86%10000m1017hPa72%
23-Apr-2024 03:00Clear Sky9°C4 mph, SW8%10000m1017hPa75%
23-Apr-2024 06:00Few Clouds8°C4 mph, W12%10000m1017hPa79%
23-Apr-2024 09:00Clear Sky8°C4 mph, W8%10000m1017hPa79%
23-Apr-2024 12:00Few Clouds10°C7 mph, NW18%10000m1018hPa74%
23-Apr-2024 15:00Broken Clouds15°C9 mph, W76%10000m1018hPa61%
23-Apr-2024 18:00Broken Clouds18°C9 mph, W81%10000m1016hPa52%
23-Apr-2024 21:00Clear Sky15°C2 mph, SW5%10000m1017hPa64%
24-Apr-2024 00:00Clear Sky12°C2 mph, NW3%10000m1018hPa76%
24-Apr-2024 03:00Scattered Clouds11°C7 mph, SW35%10000m1019hPa79%